Time;durP1;ratioP1;P1;durP2;ratioP2;P2;SDS_P1;SDS_P2;PMS_P1;PMS_P2;Temp;Humidity;BMP_temperature;BMP_pressure;BME280_temperature;BME280_humidity;BME280_pressure;Samples;Min_cycle;Max_cycle;Signal;HPM_P1;HPM_P2
2023/12/08 00:00:38;;;;;;;2.83;2.27;;;;;0.90;95298.00;;;;5076656;28;20195;-63
2023/12/08 00:03:05;;;;;;;3.20;2.33;;;;;1.00;95287.00;;;;5076653;28;20262;-63
2023/12/08 00:05:33;;;;;;;4.80;1.53;;;;;0.90;95271.00;;;;5076310;28;20201;-63
2023/12/08 00:08:00;;;;;;;2.03;1.63;;;;;0.90;95286.00;;;;5076590;28;20201;-63
2023/12/08 00:10:27;;;;;;;1.90;1.80;;;;;1.00;95284.00;;;;5076556;28;20222;-63
2023/12/08 00:12:55;;;;;;;1.03;1.03;;;;;1.10;95271.00;;;;5076356;28;20225;-63
2023/12/08 00:15:22;;;;;;;2.07;1.80;;;;;1.10;95277.00;;;;5076677;28;20195;-63
2023/12/08 00:17:51;;;;;;;3.20;2.10;;;;;1.10;95280.00;;;;5076287;28;20241;-63
2023/12/08 00:20:18;;;;;;;1.50;1.40;;;;;1.20;95275.00;;;;5076656;28;20198;-63
2023/12/08 00:22:46;;;;;;;2.00;1.90;;;;;1.10;95272.00;;;;5076804;28;20226;-63
2023/12/08 00:25:13;;;;;;;2.73;2.00;;;;;1.20;95284.00;;;;5076485;28;20282;-63
2023/12/08 00:27:41;;;;;;;2.20;2.00;;;;;1.20;95280.00;;;;5076121;28;20210;-63
2023/12/08 00:30:09;;;;;;;1.73;1.63;;;;;1.20;95275.00;;;;5076177;28;20673;-63
2023/12/08 00:32:36;;;;;;;2.13;1.73;;;;;1.10;95270.00;;;;5076775;28;20222;-63
2023/12/08 00:35:06;;;;;;;1.97;1.87;;;;;1.10;95263.00;;;;5076339;28;20282;-63
2023/12/08 00:37:33;;;;;;;1.33;1.23;;;;;1.30;95264.00;;;;5075909;28;20724;-63
2023/12/08 00:40:01;;;;;;;1.57;1.47;;;;;1.30;95257.00;;;;5075696;28;20685;-63
2023/12/08 00:42:28;;;;;;;2.23;1.90;;;;;1.30;95256.00;;;;5076447;28;20214;-62
2023/12/08 00:44:55;;;;;;;1.67;1.57;;;;;1.30;95175.00;;;;5076025;28;20195;-62
2023/12/08 00:47:23;;;;;;;1.93;1.83;;;;;1.30;95247.00;;;;5074593;28;20191;-63
2023/12/08 00:49:50;;;;;;;1.57;1.50;;;;;1.30;95244.00;;;;5075850;28;20221;-63
2023/12/08 00:52:19;;;;;;;3.23;2.63;;;;;1.30;95239.00;;;;5076517;28;20210;-63
2023/12/08 00:54:46;;;;;;;1.43;1.37;;;;;1.30;95239.00;;;;5076073;28;20226;-63
2023/12/08 00:57:14;;;;;;;1.97;1.87;;;;;1.30;95251.00;;;;5075889;28;20198;-63
2023/12/08 00:59:41;;;;;;;1.20;1.17;;;;;1.30;95252.00;;;;5075715;28;20200;-63
2023/12/08 01:02:08;;;;;;;1.77;1.67;;;;;1.30;95261.00;;;;5075578;28;20736;-63
2023/12/08 01:04:36;;;;;;;2.47;2.27;;;;;1.30;95255.00;;;;5075608;28;20663;-63
2023/12/08 01:07:03;;;;;;;1.93;1.80;;;;;1.00;95254.00;;;;5075575;28;20275;-63
2023/12/08 01:09:32;;;;;;;2.17;2.03;;;;;0.90;95242.00;;;;5075340;28;20581;-63
2023/12/08 01:12:00;;;;;;;1.60;1.50;;;;;0.90;95230.00;;;;5075708;28;20224;-63
2023/12/08 01:14:27;;;;;;;1.43;1.37;;;;;0.90;95236.00;;;;5075488;28;20285;-63
2023/12/08 01:16:55;;;;;;;1.57;1.47;;;;;0.90;95236.00;;;;5075444;28;20209;-63
2023/12/08 01:19:22;;;;;;;1.97;1.87;;;;;1.20;95235.00;;;;5075857;28;20240;-63
2023/12/08 01:21:50;;;;;;;3.13;2.63;;;;;1.30;95235.00;;;;5075783;28;20218;-63
2023/12/08 01:24:17;;;;;;;1.77;1.67;;;;;1.30;95240.00;;;;5075970;28;20190;-63
2023/12/08 01:26:46;;;;;;;1.63;1.53;;;;;1.10;95240.00;;;;5075941;28;20194;-62
2023/12/08 01:29:14;;;;;;;1.13;1.10;;;;;1.10;95233.00;;;;5075214;28;20571;-63
2023/12/08 01:31:41;;;;;;;1.67;1.57;;;;;1.10;95232.00;;;;5074922;28;20264;-62
2023/12/08 01:34:09;;;;;;;2.07;1.97;;;;;1.10;95229.00;;;;5075397;28;20195;-63
2023/12/08 01:36:36;;;;;;;5.97;1.40;;;;;1.20;95233.00;;;;5075363;28;20198;-63
2023/12/08 01:39:03;;;;;;;5.17;1.70;;;;;1.30;95224.00;;;;5075015;28;20195;-63
2023/12/08 01:41:31;;;;;;;1.33;1.13;;;;;1.20;95233.00;;;;5074894;28;20218;-63
2023/12/08 01:44:00;;;;;;;0.97;0.97;;;;;1.20;95229.00;;;;5075262;28;20281;-63
2023/12/08 01:46:27;;;;;;;3.60;1.93;;;;;1.20;95227.00;;;;5074901;28;20200;-63
2023/12/08 01:48:54;;;;;;;3.03;1.83;;;;;1.50;95230.00;;;;5074766;28;20252;-64
2023/12/08 01:51:22;;;;;;;3.07;1.67;;;;;1.40;95225.00;;;;5074657;28;20229;-62
2023/12/08 01:53:50;;;;;;;2.37;2.23;;;;;1.30;95233.00;;;;5075096;28;20205;-62
2023/12/08 01:56:18;;;;;;;1.63;1.53;;;;;1.30;95231.00;;;;5075008;28;20213;-63
2023/12/08 01:58:46;;;;;;;1.80;1.67;;;;;1.30;95228.00;;;;5073885;28;20283;-62
2023/12/08 02:01:16;;;;;;;1.87;1.77;;;;;1.30;95223.00;;;;5074586;28;20244;-62
2023/12/08 02:03:46;;;;;;;1.20;1.17;;;;;1.30;95217.00;;;;5074571;28;20195;-62
2023/12/08 02:06:13;;;;;;;2.07;1.87;;;;;1.30;95219.00;;;;5074634;28;20661;-62
2023/12/08 02:08:41;;;;;;;1.97;1.80;;;;;1.30;95209.00;;;;5074124;28;20300;-63
2023/12/08 02:11:10;;;;;;;1.07;1.07;;;;;1.30;95222.00;;;;5074117;28;20245;-65
2023/12/08 02:13:38;;;;;;;1.30;1.20;;;;;1.30;95224.00;;;;5074458;28;20229;-62
2023/12/08 02:16:10;;;;;;;3.40;2.20;;;;;1.40;95219.00;;;;5074613;28;20206;-63
2023/12/08 02:18:39;;;;;;;1.87;1.70;;;;;1.50;95226.00;;;;5056183;28;20201;-62
2023/12/08 02:21:08;;;;;;;1.47;1.43;;;;;1.60;95218.00;;;;5074151;28;20216;-63
2023/12/08 02:23:35;;;;;;;1.17;1.13;;;;;1.40;95213.00;;;;5074327;28;20199;-63
2023/12/08 02:26:05;;;;;;;1.27;1.27;;;;;1.40;95212.00;;;;5074406;28;20194;-63
2023/12/08 02:28:32;;;;;;;1.73;1.63;;;;;1.40;95217.00;;;;5074547;28;20217;-63
2023/12/08 02:31:02;;;;;;;1.13;0.97;;;;;1.40;95210.00;;;;5074319;28;20218;-63
2023/12/08 02:33:32;;;;;;;1.13;1.13;;;;;1.30;95202.00;;;;5074530;28;20206;-61
2023/12/08 02:36:01;;;;;;;1.50;1.40;;;;;1.30;95211.00;;;;5074763;28;20201;-62
2023/12/08 02:38:30;;;;;;;1.67;1.57;;;;;1.40;95206.00;;;;5074316;28;20202;-62
2023/12/08 02:40:58;;;;;;;4.60;2.03;;;;;1.40;95210.00;;;;5074224;28;20578;-63
2023/12/08 02:43:26;;;;;;;1.50;1.40;;;;;1.50;95193.00;;;;5074160;28;20670;-63
2023/12/08 02:45:54;;;;;;;1.77;1.20;;;;;1.50;95195.00;;;;5073811;28;20194;-63
2023/12/08 02:48:21;;;;;;;1.60;1.50;;;;;1.50;95175.00;;;;5073899;28;20194;-63
2023/12/08 02:50:48;;;;;;;2.40;1.70;;;;;1.50;95166.00;;;;5073600;28;20219;-63
2023/12/08 02:53:16;;;;;;;1.33;1.30;;;;;1.60;95176.00;;;;5074015;28;20552;-63
2023/12/08 02:55:43;;;;;;;2.50;2.30;;;;;1.60;95185.00;;;;5074466;28;20213;-63
2023/12/08 02:58:11;;;;;;;2.87;2.67;;;;;1.60;95179.00;;;;5073975;28;20199;-63
2023/12/08 03:00:39;;;;;;;1.53;1.47;;;;;1.60;95170.00;;;;5073764;28;20192;-63
2023/12/08 03:03:07;;;;;;;1.47;1.40;;;;;1.60;95151.00;;;;5073623;28;20214;-63
2023/12/08 03:05:34;;;;;;;2.50;2.30;;;;;1.70;95164.00;;;;5073883;28;20203;-63
2023/12/08 03:08:01;;;;;;;1.67;1.57;;;;;1.70;95168.00;;;;5074256;28;20191;-63
2023/12/08 03:10:29;;;;;;;2.47;1.90;;;;;1.70;95172.00;;;;5075229;28;20233;-63
2023/12/08 03:12:59;;;;;;;2.33;1.93;;;;;1.70;95159.00;;;;5077888;28;20229;-63
2023/12/08 03:15:27;;;;;;;2.27;2.17;;;;;1.70;95158.00;;;;5078267;28;20240;-63
2023/12/08 03:17:55;;;;;;;1.90;1.80;;;;;1.70;95166.00;;;;5078153;28;20201;-63
2023/12/08 03:20:23;;;;;;;3.03;2.77;;;;;1.90;95182.00;;;;5077904;28;20183;-63
2023/12/08 03:22:50;;;;;;;2.13;1.93;;;;;1.70;95172.00;;;;5059465;28;20238;-63
2023/12/08 03:25:17;;;;;;;1.60;1.50;;;;;1.60;95164.00;;;;5077856;28;20191;-63
2023/12/08 03:27:45;;;;;;;1.40;1.30;;;;;1.60;95165.00;;;;5077742;28;20198;-63
2023/12/08 03:30:13;;;;;;;2.27;2.07;;;;;1.50;95152.00;;;;5077758;28;20217;-63
2023/12/08 03:32:41;;;;;;;1.80;1.70;;;;;1.50;95169.00;;;;5077479;28;20230;-63
2023/12/08 03:35:10;;;;;;;2.13;2.03;;;;;1.50;95184.00;;;;5077652;28;20229;-63
2023/12/08 03:37:37;;;;;;;1.83;1.73;;;;;1.50;95185.00;;;;5077638;28;20194;-63
2023/12/08 03:40:05;;;;;;;2.10;1.77;;;;;1.50;95186.00;;;;5077440;28;20195;-63
2023/12/08 03:42:36;;;;;;;1.80;1.70;;;;;1.50;95194.00;;;;5077286;28;20222;-63
2023/12/08 03:45:04;;;;;;;2.17;1.37;;;;;1.60;95186.00;;;;5077189;28;20179;-63
2023/12/08 03:47:32;;;;;;;11.33;2.33;;;;;1.60;95186.00;;;;5077898;28;20199;-63
2023/12/08 03:49:59;;;;;;;1.40;1.40;;;;;1.60;95192.00;;;;5077298;28;20218;-63
2023/12/08 03:52:28;;;;;;;3.47;1.70;;;;;1.70;95191.00;;;;5077102;28;20215;-63
2023/12/08 03:54:55;;;;;;;1.27;1.27;;;;;1.70;95192.00;;;;5077131;28;20190;-63
2023/12/08 03:57:23;;;;;;;1.53;1.47;;;;;1.70;95210.00;;;;5077546;28;20199;-63
2023/12/08 03:59:50;;;;;;;1.80;1.57;;;;;1.60;95197.00;;;;5059133;28;20203;-63
2023/12/08 04:02:17;;;;;;;1.93;1.83;;;;;1.60;95205.00;;;;5077284;28;20211;-63
2023/12/08 04:04:45;;;;;;;3.03;2.73;;;;;1.50;95215.00;;;;5059015;28;20198;-63
2023/12/08 04:07:12;;;;;;;1.40;1.30;;;;;1.40;95211.00;;;;5076768;28;20210;-61
2023/12/08 04:09:41;;;;;;;2.00;1.90;;;;;1.40;95217.00;;;;5076156;28;20196;-62
2023/12/08 04:12:08;;;;;;;2.57;2.37;;;;;1.30;95217.00;;;;5076675;28;20229;-62
2023/12/08 04:14:36;;;;;;;1.30;1.30;;;;;1.20;95211.00;;;;5076551;28;20659;-62
2023/12/08 04:17:03;;;;;;;2.60;1.53;;;;;1.20;95204.00;;;;5076343;28;20199;-62
2023/12/08 04:19:30;;;;;;;1.67;1.57;;;;;1.20;95215.00;;;;5076859;28;20198;-62
2023/12/08 04:21:58;;;;;;;1.80;1.70;;;;;1.60;95219.00;;;;5076124;28;20602;-62
2023/12/08 04:24:25;;;;;;;1.50;1.40;;;;;1.70;95211.00;;;;5077195;28;20517;-62
2023/12/08 04:26:54;;;;;;;2.20;2.10;;;;;1.60;95207.00;;;;5077643;28;20549;-63
2023/12/08 04:29:21;;;;;;;1.43;1.33;;;;;1.60;95201.00;;;;5077266;28;20219;-63
2023/12/08 04:31:48;;;;;;;2.10;2.00;;;;;1.60;95194.00;;;;5076557;28;20230;-63
2023/12/08 04:34:16;;;;;;;1.93;1.27;;;;;1.60;95182.00;;;;5076341;28;20198;-63
2023/12/08 04:36:43;;;;;;;1.43;1.33;;;;;1.70;95184.00;;;;5076429;28;20194;-63
2023/12/08 04:39:10;;;;;;;1.70;1.60;;;;;1.70;95184.00;;;;5076277;28;20199;-63
2023/12/08 04:41:38;;;;;;;1.50;1.47;;;;;1.70;95184.00;;;;5076065;28;20603;-63
2023/12/08 04:44:06;;;;;;;1.40;1.40;;;;;1.80;95174.00;;;;5075854;28;20688;-63
2023/12/08 04:46:35;;;;;;;1.57;1.47;;;;;1.80;95174.00;;;;5076283;28;20202;-63
2023/12/08 04:49:03;;;;;;;2.90;2.00;;;;;1.80;95182.00;;;;5076310;28;20202;-63
2023/12/08 04:51:30;;;;;;;3.13;2.83;;;;;1.80;95168.00;;;;5075488;28;20220;-61
2023/12/08 04:53:57;;;;;;;1.77;1.67;;;;;1.80;95155.00;;;;5075620;28;20195;-62
2023/12/08 04:56:25;;;;;;;1.77;1.67;;;;;1.90;95157.00;;;;5075995;28;20203;-63
2023/12/08 04:58:52;;;;;;;1.93;1.70;;;;;1.90;95154.00;;;;5075892;28;20195;-62
2023/12/08 05:01:21;;;;;;;1.90;1.73;;;;;1.90;95150.00;;;;5075788;28;20187;-62
2023/12/08 05:03:48;;;;;;;1.97;1.87;;;;;1.90;95141.00;;;;5075136;28;20188;-62
2023/12/08 05:06:16;;;;;;;1.60;1.50;;;;;2.00;95138.00;;;;5075295;28;20195;-62
2023/12/08 05:08:43;;;;;;;2.50;1.87;;;;;2.00;95150.00;;;;5075119;28;20225;-63
2023/12/08 05:11:11;;;;;;;1.43;1.23;;;;;2.20;95143.00;;;;5075354;28;20698;-62
2023/12/08 05:13:38;;;;;;;1.33;1.23;;;;;2.10;95153.00;;;;5075365;28;20278;-63
2023/12/08 05:16:07;;;;;;;1.33;0.93;;;;;2.10;95154.00;;;;5075088;28;20188;-62
2023/12/08 05:18:35;;;;;;;2.47;2.27;;;;;2.00;95151.00;;;;5075375;28;20566;-62
2023/12/08 05:21:03;;;;;;;1.30;1.30;;;;;2.10;95158.00;;;;5075576;28;20183;-62
2023/12/08 05:23:30;;;;;;;1.80;1.70;;;;;2.00;95146.00;;;;5075179;28;20219;-63
2023/12/08 05:25:58;;;;;;;0.87;0.87;;;;;2.10;95148.00;;;;5057050;28;20200;-63
2023/12/08 05:28:25;;;;;;;1.63;1.53;;;;;2.10;95144.00;;;;5075182;28;20201;-63
2023/12/08 05:30:54;;;;;;;1.33;1.30;;;;;2.10;95155.00;;;;5074562;28;20290;-63
2023/12/08 05:33:21;;;;;;;1.03;1.03;;;;;2.10;95148.00;;;;5073790;28;20302;-63
2023/12/08 05:35:50;;;;;;;3.60;3.23;;;;;2.10;95147.00;;;;5074513;28;20198;-63
2023/12/08 05:38:17;;;;;;;1.90;1.80;;;3.20;74.40;2.00;95145.00;;;;5074669;28;20192;-63
2023/12/08 05:40:44;;;;;;;1.93;1.83;;;3.20;75.40;1.80;95161.00;;;;5074681;28;20198;-63
2023/12/08 05:43:12;;;;;;;1.80;1.70;;;3.00;76.30;1.80;95149.00;;;;5074543;28;20222;-63
2023/12/08 05:45:39;;;;;;;1.83;1.73;;;2.90;77.70;1.90;95163.00;;;;5074860;28;20684;-63
2023/12/08 05:48:06;;;;;;;0.90;0.90;;;2.90;78.90;2.10;95172.00;;;;5056777;28;20198;-62
2023/12/08 05:50:34;;;;;;;1.13;1.13;;;;;2.30;95167.00;;;;5074940;28;20199;-63
2023/12/08 05:53:03;;;;;;;1.17;1.17;;;;;2.30;95164.00;;;;5074832;28;20218;-63
2023/12/08 05:55:30;;;;;;;1.07;1.07;;;;;2.40;95171.00;;;;5074627;28;20202;-63
2023/12/08 05:57:58;;;;;;;2.03;1.53;;;;;2.30;95177.00;;;;5075426;28;20187;-63
2023/12/08 06:00:25;;;;;;;2.10;1.83;;;;;2.30;95173.00;;;;5074843;28;20199;-63
2023/12/08 06:02:52;;;;;;;1.50;1.40;;;;;2.20;95181.00;;;;5074596;28;20704;-63
2023/12/08 06:05:20;;;;;;;1.50;1.40;;;;;2.20;95170.00;;;;5074582;28;20198;-63
2023/12/08 06:07:48;;;;;;;2.30;1.97;;;;;2.30;95175.00;;;;5074367;28;20201;-62
2023/12/08 06:10:17;;;;;;;3.20;2.73;;;;;2.30;95176.00;;;;5074361;28;20190;-63
2023/12/08 06:12:44;;;;;;;1.93;1.83;;;;;2.30;95173.00;;;;5073791;28;20229;-63
2023/12/08 06:15:12;;;;;;;2.70;1.60;;;;;2.20;95167.00;;;;5073844;28;20196;-63
2023/12/08 06:17:40;;;;;;;2.60;2.07;;;;;2.20;95174.00;;;;5074050;28;20561;-63
2023/12/08 06:20:10;;;;;;;1.50;1.40;;;;;2.30;95177.00;;;;5056433;28;20199;-63
2023/12/08 06:22:37;;;;;;;2.03;1.93;;;;;2.20;95172.00;;;;5074343;28;20238;-63
2023/12/08 06:25:05;;;;;;;1.87;1.77;;;;;2.30;95177.00;;;;5074212;28;20202;-63
2023/12/08 06:27:34;;;;;;;1.73;1.63;;;;;2.30;95179.00;;;;5074578;28;20194;-63
2023/12/08 06:30:02;;;;;;;1.50;1.47;;;;;2.10;95172.00;;;;5074492;28;20209;-63
2023/12/08 06:32:29;;;;;;;4.10;2.30;;;;;2.10;95173.00;;;;5074205;28;20217;-63
2023/12/08 06:34:59;;;;;;;3.40;2.07;;;;;2.20;95166.00;;;;5073952;28;20661;-63
2023/12/08 06:37:27;;;;;;;1.50;1.40;;;;;2.20;95172.00;;;;5074523;28;20205;-62
2023/12/08 06:39:54;;;;;;;1.97;1.73;;;;;2.10;95168.00;;;;5074909;28;20516;-62
2023/12/08 06:42:22;;;;;;;1.93;1.83;;;;;2.00;95166.00;;;;5074102;28;20214;-63
2023/12/08 06:44:51;;;;;;;1.93;1.83;;;;;2.10;95172.00;;;;5073756;28;20247;-63
2023/12/08 06:47:18;;;;;;;2.10;2.00;;;;;2.10;95165.00;;;;5073691;28;20195;-63
2023/12/08 06:49:46;;;;;;;2.77;2.47;;;;;2.10;95177.00;;;;5074371;28;20195;-63
2023/12/08 06:52:13;;;;;;;2.20;2.03;;;;;2.10;95171.00;;;;5074287;28;20219;-63
2023/12/08 06:54:41;;;;;;;2.27;2.10;;;;;2.10;95176.00;;;;5073986;28;20191;-63
2023/12/08 06:57:11;;;;;;;2.77;2.47;;;;;2.00;95178.00;;;;5073862;28;20179;-63
2023/12/08 06:59:39;;;;;;;6.73;1.80;;;;;2.30;95179.00;;;;5073720;28;20199;-63
2023/12/08 07:02:07;;;;;;;2.40;2.20;;;;;2.40;95177.00;;;;5073959;28;20234;-63
2023/12/08 07:04:35;;;;;;;2.53;2.33;;;;;2.40;95169.00;;;;5073933;28;20681;-63
2023/12/08 07:07:03;;;;;;;1.87;1.77;;;;;2.30;95174.00;;;;5073091;28;20199;-63
2023/12/08 07:09:30;;;;;;;2.10;2.00;;;;;2.30;95181.00;;;;5073199;28;20550;-63
2023/12/08 07:11:57;;;;;;;1.33;1.23;;;;;2.30;95177.00;;;;5073618;28;20720;-63
2023/12/08 07:14:25;;;;;;;1.67;1.57;;;;;2.30;95186.00;;;;5073344;28;20198;-62
2023/12/08 07:16:52;;;;;;;1.47;1.37;;;;;2.40;95163.00;;;;5073077;28;20228;-63
2023/12/08 07:19:21;;;;;;;2.10;2.00;;;;;2.40;95181.00;;;;5073258;28;20191;-63
2023/12/08 07:21:49;;;;;;;1.33;1.33;;;;;2.50;95166.00;;;;5073094;28;20222;-63
2023/12/08 07:24:16;;;;;;;1.10;1.10;;;;;2.50;95174.00;;;;5073318;28;20210;-63
2023/12/08 07:26:44;;;;;;;1.30;1.30;;;;;2.50;95166.00;;;;5073075;28;20188;-63
2023/12/08 07:29:11;;;;;;;1.70;1.60;;;;;2.60;95174.00;;;;5073564;28;20194;-63
2023/12/08 07:31:38;;;;;;;1.10;1.10;;;;;2.60;95162.00;;;;5073030;28;20219;-63
2023/12/08 07:34:06;;;;;;;2.20;1.40;;;;;2.60;95169.00;;;;5073489;28;20222;-63
2023/12/08 07:36:35;;;;;;;1.57;1.43;;;;;2.60;95179.00;;;;5072892;28;20190;-63
2023/12/08 07:39:02;;;;;;;1.80;1.70;;;;;2.70;95170.00;;;;5072857;28;20282;-63
2023/12/08 07:41:30;;;;;;;1.20;1.20;;;;;2.60;95176.00;;;;5072925;28;20213;-63
2023/12/08 07:43:59;;;;;;;1.47;1.30;;;;;2.70;95170.00;;;;5073839;28;20199;-63
2023/12/08 07:46:27;;;;;;;4.57;1.87;;;;;2.70;95176.00;;;;5073320;28;20187;-63
2023/12/08 07:48:54;;;;;;;2.07;1.97;;;;;2.70;95175.00;;;;5073489;28;20195;-63
2023/12/08 07:51:21;;;;;;;2.37;2.13;;;3.60;88.50;2.60;95183.00;;;;5073174;28;20219;-62
2023/12/08 07:53:50;;;;;;;1.40;1.30;;;3.50;89.20;2.60;95181.00;;;;5073445;28;20191;-63
2023/12/08 07:56:17;;;;;;;2.43;1.47;;;;;2.70;95173.00;;;;5073622;28;20196;-63
2023/12/08 07:58:44;;;;;;;1.80;1.70;;;3.60;99.90;2.60;95179.00;;;;5076791;28;20290;-62
2023/12/08 08:01:12;;;;;;;1.47;1.37;;;;;2.70;95171.00;;;;5073098;28;20196;-63
2023/12/08 08:03:39;;;;;;;1.10;1.10;;;;;2.70;95179.00;;;;5075155;28;20206;-65
2023/12/08 08:06:07;;;;;;;2.30;2.07;;;;;2.80;95182.00;;;;5080023;28;20278;-64
2023/12/08 08:08:36;;;;;;;2.30;2.13;;;3.60;91.60;2.70;95181.00;;;;5079845;28;20219;-64
2023/12/08 08:11:05;;;;;;;1.13;1.13;;;3.70;92.10;2.80;95195.00;;;;5078832;28;20195;-64
2023/12/08 08:13:32;;;;;;;1.97;1.63;;;3.70;92.80;2.80;95193.00;;;;5057119;28;20649;-64
2023/12/08 08:15:59;;;;;;;2.03;1.83;;;3.70;92.80;2.70;95202.00;;;;5069067;28;20664;-62
2023/12/08 08:18:28;;;;;;;1.90;1.80;;;3.60;99.90;2.80;95197.00;;;;5071515;28;20316;-62
2023/12/08 08:20:56;;;;;;;1.17;1.17;;;;;2.80;95205.00;;;;5069866;28;20690;-62
2023/12/08 08:23:23;;;;;;;1.67;1.57;;;3.70;92.60;2.90;95211.00;;;;5073709;28;20230;-62
2023/12/08 08:25:50;;;;;;;2.37;2.10;;;3.80;91.90;2.90;95211.00;;;;5074193;28;20198;-62
2023/12/08 08:28:20;;;;;;;1.70;1.60;;;3.80;92.60;3.00;95201.00;;;;5074106;28;20670;-63
2023/12/08 08:30:48;;;;;;;3.00;1.50;;;3.90;91.40;3.00;95206.00;;;;5073301;28;20202;-63
2023/12/08 08:33:15;;;;;;;1.97;1.77;;;3.90;92.10;2.90;95220.00;;;;5073482;28;20229;-62
2023/12/08 08:35:42;;;;;;;1.27;1.27;;;3.80;92.00;3.00;95220.00;;;;5071043;28;20604;-62
2023/12/08 08:38:11;;;;;;;2.07;1.40;;;3.80;92.70;3.00;95210.00;;;;5074105;28;20188;-62
2023/12/08 08:40:38;;;;;;;1.43;1.33;;;3.90;93.10;3.00;95228.00;;;;5072251;28;20618;-62
2023/12/08 08:43:05;;;;;;;1.27;1.27;;;4.00;99.60;2.90;95232.00;;;;5073598;28;20237;-62
2023/12/08 08:45:34;;;;;;;2.50;2.30;;;3.80;93.00;2.90;95235.00;;;;5073461;28;20195;-62
2023/12/08 08:48:03;;;;;;;2.03;1.57;;;3.80;92.60;3.10;95231.00;;;;5073259;28;20537;-62
2023/12/08 08:50:30;;;;;;;1.67;1.57;;;3.80;93.60;3.00;95224.00;;;;5073217;28;20543;-62
2023/12/08 08:52:57;;;;;;;1.70;1.63;;;3.90;92.60;3.10;95225.00;;;;5073038;28;20247;-62
2023/12/08 08:55:24;;;;;;;1.87;1.40;;;3.90;93.20;3.30;95234.00;;;;5073033;28;20192;-62
2023/12/08 08:57:51;;;;;;;1.47;1.37;;;4.10;91.40;3.20;95231.00;;;;5073476;28;20258;-62
2023/12/08 09:00:21;;;;;;;1.70;1.60;;;4.00;96.20;3.20;95230.00;;;;5073319;28;20209;-62
2023/12/08 09:02:51;;;;;;;1.53;1.43;;;4.00;95.00;3.30;95236.00;;;;5055045;28;20223;-63
2023/12/08 09:05:18;;;;;;;1.83;1.73;;;4.10;92.10;3.30;95237.00;;;;5073012;28;20611;-63
2023/12/08 09:07:46;;;;;;;1.43;1.33;;;4.20;91.00;3.30;95239.00;;;;5072835;28;20251;-62
2023/12/08 09:10:13;;;;;;;1.80;1.70;;;;;3.40;95245.00;;;;5073305;28;20205;-62
2023/12/08 09:12:40;;;;;;;2.53;1.63;;;4.20;91.00;3.50;95237.00;;;;5072734;28;20995;-63
2023/12/08 09:15:08;;;;;;;2.23;2.00;;;4.30;90.60;3.50;95243.00;;;;5073544;28;20187;-63
2023/12/08 09:17:36;;;;;;;3.20;1.90;;;4.40;90.20;3.50;95249.00;;;;5072052;28;20279;-63
2023/12/08 09:20:07;;;;;;;2.63;1.67;;;4.40;92.70;3.50;95250.00;;;;5073409;28;20566;-63
2023/12/08 09:22:35;;;;;;;2.47;2.27;;;4.40;89.90;3.40;95247.00;;;;5072379;28;20215;-63
2023/12/08 09:25:02;;;;;;;2.03;1.93;;;4.40;88.70;3.50;95244.00;;;;5072846;28;20348;-63
2023/12/08 09:27:29;;;;;;;0.90;0.90;;;4.40;88.70;3.50;95245.00;;;;5072769;28;20639;-62
2023/12/08 09:29:57;;;;;;;1.20;1.20;;;4.40;88.80;3.50;95248.00;;;;5073475;28;20191;-62
2023/12/08 09:32:24;;;;;;;0.80;0.80;;;4.50;90.40;3.60;95245.00;;;;5071605;28;20617;-62
2023/12/08 09:34:51;;;;;;;1.27;1.20;;;4.50;89.30;3.70;95248.00;;;;5073074;28;20192;-63
2023/12/08 09:37:19;;;;;;;3.13;1.90;;;4.50;99.90;3.80;95241.00;;;;5072551;28;20286;-62
2023/12/08 09:39:47;;;;;;;1.70;1.60;;;4.70;89.50;3.80;95242.00;;;;5073538;28;20515;-63
2023/12/08 09:42:25;;;;;;;1.67;1.60;;;4.70;99.90;3.90;95251.00;;;;5071925;28;20303;-63
2023/12/08 09:44:53;;;;;;;1.87;1.77;;;4.80;89.70;4.00;95250.00;;;;5072836;28;20187;-62
2023/12/08 09:47:23;;;;;;;1.53;1.43;;;4.90;89.50;4.00;95261.00;;;;5072019;28;20667;-62
2023/12/08 09:49:53;;;;;;;1.67;1.57;;;4.80;88.40;4.00;95269.00;;;;5072951;28;20276;-62
2023/12/08 09:52:22;;;;;;;1.97;1.87;;;4.90;88.20;3.80;95254.00;;;;5071868;28;20219;-63
2023/12/08 09:54:49;;;;;;;1.27;1.27;;;4.70;87.00;3.70;95258.00;;;;5071935;28;20630;-62
2023/12/08 09:57:20;;;;;;;4.57;3.33;;;4.70;87.20;3.70;95248.00;;;;5049394;28;20290;-62
2023/12/08 09:59:51;;;;;;;2.20;2.00;;;4.60;87.80;3.70;95249.00;;;;5071652;28;20187;-63
2023/12/08 10:02:19;;;;;;;1.77;1.67;;;4.70;88.50;3.80;95252.00;;;;5071888;28;20322;-62
2023/12/08 10:04:46;;;;;;;1.53;1.50;;;4.70;88.70;3.80;95256.00;;;;5072395;28;20192;-62
2023/12/08 10:07:14;;;;;;;1.37;1.27;;;4.70;88.50;3.90;95255.00;;;;5053651;28;20195;-62
2023/12/08 10:09:43;;;;;;;1.37;1.37;;;;;4.10;95252.00;;;;5071595;28;20617;-62
2023/12/08 10:12:10;;;;;;;1.80;1.70;;;5.00;88.50;4.20;95249.00;;;;5072108;28;20222;-63
2023/12/08 10:14:51;;;;;;;2.13;1.93;;;;;4.40;95240.00;;;;5072303;28;20249;-63
2023/12/08 10:17:19;;;;;;;0.93;0.93;;;5.40;88.70;4.60;95253.00;;;;5071615;28;20203;-62
2023/12/08 10:19:46;;;;;;;1.20;1.20;;;5.60;88.70;4.80;95241.00;;;;5071626;28;20206;-62
2023/12/08 10:22:13;;;;;;;1.47;1.40;;;5.60;89.30;5.10;95245.00;;;;5071362;28;20573;-62
2023/12/08 10:24:43;;;;;;;1.37;1.30;;;5.90;89.50;5.10;95243.00;;;;5072154;28;20618;-62
2023/12/08 10:27:11;;;;;;;2.37;2.27;;;5.90;89.10;5.10;95248.00;;;;5070697;28;20199;-62
2023/12/08 10:29:38;;;;;;;1.87;1.77;;;5.90;86.20;5.10;95243.00;;;;5071490;28;20185;-63
2023/12/08 10:32:06;;;;;;;1.43;1.43;;;;;5.20;95242.00;;;;5071216;28;20263;-63
2023/12/08 10:34:33;;;;;;;1.97;1.87;;;6.00;85.60;5.30;95238.00;;;;5071667;28;20683;-62
2023/12/08 10:37:00;;;;;;;1.47;1.37;;;6.10;85.50;5.20;95238.00;;;;5071925;28;20197;-62
2023/12/08 10:39:28;;;;;;;1.33;1.23;;;6.00;84.70;5.10;95237.00;;;;5071534;28;20190;-62
2023/12/08 10:41:59;;;;;;;2.10;2.00;;;6.00;84.50;5.00;95221.00;;;;5071680;28;20211;-62
2023/12/08 10:44:26;;;;;;;3.70;2.60;;;5.90;85.10;5.00;95224.00;;;;5071238;28;20185;-62
2023/12/08 10:46:53;;;;;;;5.97;1.80;;;5.90;85.50;5.10;95220.00;;;;5071591;28;20222;-62
2023/12/08 10:49:21;;;;;;;1.97;1.87;;;5.90;84.60;5.20;95223.00;;;;5071458;28;20225;-63
2023/12/08 10:51:49;;;;;;;2.37;2.13;;;6.10;84.10;5.00;95224.00;;;;5070972;28;20325;-62
2023/12/08 10:54:18;;;;;;;1.53;1.50;;;5.80;84.20;5.20;95214.00;;;;5071646;28;20286;-63
2023/12/08 10:56:48;;;;;;;1.47;1.27;;;6.00;85.20;5.20;95226.00;;;;5071131;28;20201;-63
2023/12/08 10:59:22;;;;;;;1.03;1.03;;;6.00;84.90;5.40;95225.00;;;;5050036;28;20205;-67
2023/12/08 11:01:52;;;;;;;1.30;1.23;;;6.20;84.90;5.30;95225.00;;;;5049392;28;20218;-63
2023/12/08 11:04:22;;;;;;;1.10;1.10;;;6.10;83.60;5.20;95218.00;;;;5070965;28;20200;-62
2023/12/08 11:07:00;;;;;;;2.57;1.73;;;6.00;83.90;5.20;95224.00;;;;5071304;28;20192;-62
2023/12/08 11:09:32;;;;;;;2.70;1.10;;;6.10;84.30;5.00;95230.00;;;;5071378;28;20183;-63
2023/12/08 11:12:03;;;;;;;1.43;1.33;;;5.90;84.60;5.10;95228.00;;;;5071611;28;20683;-62
2023/12/08 11:14:41;;;;;;;1.40;1.30;;;6.00;85.50;5.20;95234.00;;;;5071677;28;20198;-64
2023/12/08 11:17:35;;;;;;;1.67;1.57;;;6.00;84.80;5.20;95224.00;;;;5067521;28;20190;-62
2023/12/08 11:20:05;;;;;;;1.73;1.63;;;6.00;84.50;5.30;95221.00;;;;5053568;28;20218;-62
2023/12/08 11:22:33;;;;;;;0.90;0.90;;;6.00;85.60;5.10;95234.00;;;;5066746;28;20230;-62
2023/12/08 11:25:08;;;;;;;1.40;1.27;;;6.00;84.50;5.20;95238.00;;;;5067047;28;20200;-62
2023/12/08 11:27:49;;;;;;;5.40;1.80;;;6.00;85.70;5.20;95234.00;;;;5067456;28;20190;-63
2023/12/08 11:30:26;;;;;;;2.67;1.70;;;6.20;85.40;5.30;95239.00;;;;5071165;28;20278;-63
2023/12/08 11:33:06;;;;;;;2.33;2.13;;;6.20;85.70;5.40;95240.00;;;;5074132;28;20226;-63
2023/12/08 11:35:33;;;;;;;1.17;1.17;;;;;5.50;95230.00;;;;5070354;28;20675;-63
2023/12/08 11:38:04;;;;;;;1.03;1.03;;;6.20;84.90;5.30;95234.00;;;;5074835;28;20206;-62
2023/12/08 11:40:31;;;;;;;2.97;2.77;;;6.20;85.50;5.50;95241.00;;;;5074846;28;20619;-62
2023/12/08 11:42:59;;;;;;;1.07;1.07;;;6.30;84.80;5.50;95232.00;;;;5075067;28;20218;-62
2023/12/08 11:45:27;;;;;;;1.33;1.30;;;6.30;87.40;5.40;95234.00;;;;5074072;28;20188;-62
2023/12/08 11:47:56;;;;;;;1.40;1.30;;;6.20;91.60;5.50;95225.00;;;;5074274;28;20290;-62
2023/12/08 11:50:25;;;;;;;0.93;0.93;;;;;5.70;95230.00;;;;5074584;28;20222;-62
2023/12/08 11:52:52;;;;;;;1.67;1.57;;;6.50;85.00;5.60;95231.00;;;;5074724;28;20268;-62
2023/12/08 11:55:24;;;;;;;1.63;1.53;;;6.40;89.70;5.70;95227.00;;;;5074711;28;20251;-62
2023/12/08 11:58:07;;;;;;;1.53;1.47;;;6.40;91.50;5.70;95229.00;;;;5074358;28;20192;-62
2023/12/08 12:00:37;;;;;;;1.90;1.77;;;;;5.80;95230.00;;;;5069965;28;20184;-62
2023/12/08 12:03:07;;;;;;;1.30;1.30;;;6.50;86.00;5.70;95223.00;;;;5070081;28;20223;-62